sensor_id;sensor_type;location;lat;lon;timestamp;P1;durP1;ratioP1;P2;durP2;ratioP2
22097;SDS011;11215;51.938;8.464;2023-03-01T00:01:25;7.80;;;4.87;;
22097;SDS011;11215;51.938;8.464;2023-03-01T00:03:53;6.53;;;4.70;;
22097;SDS011;11215;51.938;8.464;2023-03-01T00:06:19;7.70;;;5.17;;
22097;SDS011;11215;51.938;8.464;2023-03-01T00:08:45;7.33;;;4.70;;
22097;SDS011;11215;51.938;8.464;2023-03-01T00:13:40;8.20;;;5.73;;
22097;SDS011;11215;51.938;8.464;2023-03-01T00:16:09;9.07;;;5.87;;
22097;SDS011;11215;51.938;8.464;2023-03-01T00:18:36;7.50;;;5.50;;
22097;SDS011;11215;51.938;8.464;2023-03-01T00:21:02;8.80;;;5.87;;
22097;SDS011;11215;51.938;8.464;2023-03-01T00:23:28;7.63;;;5.93;;
22097;SDS011;11215;51.938;8.464;2023-03-01T00:25:54;10.77;;;6.37;;
22097;SDS011;11215;51.938;8.464;2023-03-01T00:28:20;8.43;;;5.53;;
22097;SDS011;11215;51.938;8.464;2023-03-01T00:30:46;9.23;;;5.50;;
22097;SDS011;11215;51.938;8.464;2023-03-01T00:33:12;8.37;;;5.17;;
22097;SDS011;11215;51.938;8.464;2023-03-01T00:35:37;7.20;;;5.67;;
22097;SDS011;11215;51.938;8.464;2023-03-01T00:38:03;7.03;;;5.17;;
22097;SDS011;11215;51.938;8.464;2023-03-01T00:40:30;8.37;;;5.80;;
22097;SDS011;11215;51.938;8.464;2023-03-01T00:42:58;7.30;;;5.47;;
22097;SDS011;11215;51.938;8.464;2023-03-01T00:45:24;9.10;;;5.50;;
22097;SDS011;11215;51.938;8.464;2023-03-01T00:47:50;6.33;;;4.97;;
22097;SDS011;11215;51.938;8.464;2023-03-01T00:50:15;7.37;;;5.00;;
22097;SDS011;11215;51.938;8.464;2023-03-01T00:52:41;7.37;;;4.90;;
22097;SDS011;11215;51.938;8.464;2023-03-01T00:55:07;8.53;;;5.43;;
22097;SDS011;11215;51.938;8.464;2023-03-01T00:57:33;7.27;;;5.33;;
22097;SDS011;11215;51.938;8.464;2023-03-01T00:59:58;7.60;;;5.30;;
22097;SDS011;11215;51.938;8.464;2023-03-01T01:02:24;7.60;;;5.13;;
22097;SDS011;11215;51.938;8.464;2023-03-01T01:04:50;7.10;;;4.87;;
22097;SDS011;11215;51.938;8.464;2023-03-01T01:07:16;7.67;;;5.03;;
22097;SDS011;11215;51.938;8.464;2023-03-01T01:09:42;7.43;;;5.30;;
22097;SDS011;11215;51.938;8.464;2023-03-01T01:12:08;6.87;;;4.93;;
22097;SDS011;11215;51.938;8.464;2023-03-01T01:14:34;8.07;;;4.90;;
22097;SDS011;11215;51.938;8.464;2023-03-01T01:17:00;6.93;;;4.93;;
22097;SDS011;11215;51.938;8.464;2023-03-01T01:19:26;7.00;;;5.37;;
22097;SDS011;11215;51.938;8.464;2023-03-01T01:21:51;8.33;;;5.13;;
22097;SDS011;11215;51.938;8.464;2023-03-01T01:24:17;6.83;;;5.03;;
22097;SDS011;11215;51.938;8.464;2023-03-01T01:26:44;6.53;;;4.13;;
22097;SDS011;11215;51.938;8.464;2023-03-01T01:29:09;6.43;;;4.57;;
22097;SDS011;11215;51.938;8.464;2023-03-01T01:31:36;8.10;;;5.47;;
22097;SDS011;11215;51.938;8.464;2023-03-01T01:34:03;7.37;;;4.63;;
22097;SDS011;11215;51.938;8.464;2023-03-01T01:36:30;7.60;;;5.13;;
22097;SDS011;11215;51.938;8.464;2023-03-01T01:38:57;9.40;;;5.53;;
22097;SDS011;11215;51.938;8.464;2023-03-01T01:41:23;7.57;;;5.03;;
22097;SDS011;11215;51.938;8.464;2023-03-01T01:44:09;5.83;;;4.67;;
22097;SDS011;11215;51.938;8.464;2023-03-01T01:46:54;5.77;;;4.10;;
22097;SDS011;11215;51.938;8.464;2023-03-01T01:49:33;6.43;;;4.60;;
22097;SDS011;11215;51.938;8.464;2023-03-01T01:52:11;5.73;;;4.57;;
22097;SDS011;11215;51.938;8.464;2023-03-01T01:55:12;6.93;;;4.87;;
22097;SDS011;11215;51.938;8.464;2023-03-01T01:57:34;6.97;;;4.80;;
22097;SDS011;11215;51.938;8.464;2023-03-01T02:00:04;7.33;;;4.87;;
22097;SDS011;11215;51.938;8.464;2023-03-01T02:02:39;6.30;;;4.50;;
22097;SDS011;11215;51.938;8.464;2023-03-01T02:07:47;7.00;;;4.97;;
22097;SDS011;11215;51.938;8.464;2023-03-01T02:10:14;5.87;;;4.40;;
22097;SDS011;11215;51.938;8.464;2023-03-01T02:12:40;7.93;;;5.00;;
22097;SDS011;11215;51.938;8.464;2023-03-01T02:15:07;7.03;;;4.53;;
22097;SDS011;11215;51.938;8.464;2023-03-01T02:17:33;6.73;;;4.47;;
22097;SDS011;11215;51.938;8.464;2023-03-01T02:23:04;6.13;;;4.43;;
22097;SDS011;11215;51.938;8.464;2023-03-01T02:25:36;5.53;;;4.33;;
22097;SDS011;11215;51.938;8.464;2023-03-01T02:30:41;6.17;;;4.33;;
22097;SDS011;11215;51.938;8.464;2023-03-01T02:33:28;5.93;;;4.30;;
22097;SDS011;11215;51.938;8.464;2023-03-01T02:36:01;7.07;;;4.43;;
22097;SDS011;11215;51.938;8.464;2023-03-01T02:38:33;6.87;;;4.47;;
22097;SDS011;11215;51.938;8.464;2023-03-01T02:40:58;6.90;;;4.10;;
22097;SDS011;11215;51.938;8.464;2023-03-01T02:43:27;5.50;;;3.97;;
22097;SDS011;11215;51.938;8.464;2023-03-01T02:46:04;7.03;;;4.43;;
22097;SDS011;11215;51.938;8.464;2023-03-01T02:48:42;5.93;;;4.27;;
22097;SDS011;11215;51.938;8.464;2023-03-01T02:51:22;6.93;;;4.47;;
22097;SDS011;11215;51.938;8.464;2023-03-01T02:54:25;4.70;;;3.23;;
22097;SDS011;11215;51.938;8.464;2023-03-01T02:57:04;6.07;;;4.17;;
22097;SDS011;11215;51.938;8.464;2023-03-01T02:59:31;6.53;;;4.67;;
22097;SDS011;11215;51.938;8.464;2023-03-01T03:02:04;5.63;;;3.87;;
22097;SDS011;11215;51.938;8.464;2023-03-01T03:04:30;5.57;;;4.20;;
22097;SDS011;11215;51.938;8.464;2023-03-01T03:06:57;7.97;;;4.43;;
22097;SDS011;11215;51.938;8.464;2023-03-01T03:09:22;5.67;;;4.33;;
22097;SDS011;11215;51.938;8.464;2023-03-01T03:11:48;5.70;;;3.70;;
22097;SDS011;11215;51.938;8.464;2023-03-01T03:14:14;5.90;;;3.90;;
22097;SDS011;11215;51.938;8.464;2023-03-01T03:16:42;6.40;;;4.10;;
22097;SDS011;11215;51.938;8.464;2023-03-01T03:19:10;6.47;;;3.87;;
22097;SDS011;11215;51.938;8.464;2023-03-01T03:21:35;6.17;;;4.40;;
22097;SDS011;11215;51.938;8.464;2023-03-01T03:24:01;5.97;;;4.17;;
22097;SDS011;11215;51.938;8.464;2023-03-01T03:26:27;7.90;;;3.90;;
22097;SDS011;11215;51.938;8.464;2023-03-01T03:28:53;6.33;;;4.57;;
22097;SDS011;11215;51.938;8.464;2023-03-01T03:31:19;7.87;;;4.13;;
22097;SDS011;11215;51.938;8.464;2023-03-01T03:33:45;7.10;;;4.60;;
22097;SDS011;11215;51.938;8.464;2023-03-01T03:36:15;7.43;;;4.70;;
22097;SDS011;11215;51.938;8.464;2023-03-01T03:38:42;5.90;;;4.07;;
22097;SDS011;11215;51.938;8.464;2023-03-01T03:41:09;10.07;;;4.53;;
22097;SDS011;11215;51.938;8.464;2023-03-01T03:43:36;7.80;;;4.60;;
22097;SDS011;11215;51.938;8.464;2023-03-01T03:46:04;6.60;;;4.13;;
22097;SDS011;11215;51.938;8.464;2023-03-01T03:48:31;7.83;;;4.60;;
22097;SDS011;11215;51.938;8.464;2023-03-01T03:51:09;6.03;;;4.30;;
22097;SDS011;11215;51.938;8.464;2023-03-01T03:53:36;6.50;;;4.53;;
22097;SDS011;11215;51.938;8.464;2023-03-01T03:56:02;6.00;;;4.50;;
22097;SDS011;11215;51.938;8.464;2023-03-01T03:58:28;6.27;;;4.10;;
22097;SDS011;11215;51.938;8.464;2023-03-01T04:00:55;7.53;;;4.73;;
22097;SDS011;11215;51.938;8.464;2023-03-01T04:03:22;5.73;;;3.87;;
22097;SDS011;11215;51.938;8.464;2023-03-01T04:05:49;6.40;;;3.80;;
22097;SDS011;11215;51.938;8.464;2023-03-01T04:08:17;8.63;;;4.20;;
22097;SDS011;11215;51.938;8.464;2023-03-01T04:10:45;6.00;;;4.23;;
22097;SDS011;11215;51.938;8.464;2023-03-01T04:13:14;6.50;;;3.93;;
22097;SDS011;11215;51.938;8.464;2023-03-01T04:15:42;7.63;;;4.40;;
22097;SDS011;11215;51.938;8.464;2023-03-01T04:18:13;5.80;;;3.83;;
22097;SDS011;11215;51.938;8.464;2023-03-01T04:20:41;6.37;;;4.50;;
22097;SDS011;11215;51.938;8.464;2023-03-01T04:23:13;6.23;;;4.37;;
22097;SDS011;11215;51.938;8.464;2023-03-01T04:25:47;6.73;;;4.57;;
22097;SDS011;11215;51.938;8.464;2023-03-01T04:28:23;6.33;;;4.60;;
22097;SDS011;11215;51.938;8.464;2023-03-01T04:30:51;7.60;;;4.33;;
22097;SDS011;11215;51.938;8.464;2023-03-01T04:33:18;8.30;;;4.70;;
22097;SDS011;11215;51.938;8.464;2023-03-01T04:35:44;7.20;;;4.53;;
22097;SDS011;11215;51.938;8.464;2023-03-01T04:38:10;7.63;;;5.07;;
22097;SDS011;11215;51.938;8.464;2023-03-01T04:40:39;7.00;;;4.83;;
22097;SDS011;11215;51.938;8.464;2023-03-01T04:43:04;7.03;;;4.57;;
22097;SDS011;11215;51.938;8.464;2023-03-01T04:45:31;7.10;;;4.70;;
22097;SDS011;11215;51.938;8.464;2023-03-01T04:47:59;8.43;;;4.90;;
22097;SDS011;11215;51.938;8.464;2023-03-01T04:50:25;6.43;;;4.63;;
22097;SDS011;11215;51.938;8.464;2023-03-01T04:52:51;7.17;;;4.80;;
22097;SDS011;11215;51.938;8.464;2023-03-01T04:55:17;8.87;;;5.17;;
22097;SDS011;11215;51.938;8.464;2023-03-01T04:57:43;8.20;;;5.17;;
22097;SDS011;11215;51.938;8.464;2023-03-01T05:00:10;6.53;;;5.30;;
22097;SDS011;11215;51.938;8.464;2023-03-01T05:02:49;7.43;;;5.23;;
22097;SDS011;11215;51.938;8.464;2023-03-01T05:05:20;8.03;;;5.13;;
22097;SDS011;11215;51.938;8.464;2023-03-01T05:07:50;7.13;;;4.80;;
22097;SDS011;11215;51.938;8.464;2023-03-01T05:10:17;8.43;;;5.57;;
22097;SDS011;11215;51.938;8.464;2023-03-01T05:12:42;8.57;;;5.40;;
22097;SDS011;11215;51.938;8.464;2023-03-01T05:15:08;8.43;;;6.00;;
22097;SDS011;11215;51.938;8.464;2023-03-01T05:17:34;6.43;;;4.50;;
22097;SDS011;11215;51.938;8.464;2023-03-01T05:20:00;8.73;;;5.33;;
22097;SDS011;11215;51.938;8.464;2023-03-01T05:22:27;8.67;;;4.90;;
22097;SDS011;11215;51.938;8.464;2023-03-01T05:24:54;7.70;;;4.60;;
22097;SDS011;11215;51.938;8.464;2023-03-01T05:27:20;8.60;;;4.90;;
22097;SDS011;11215;51.938;8.464;2023-03-01T05:29:47;7.37;;;4.83;;
22097;SDS011;11215;51.938;8.464;2023-03-01T05:32:13;7.47;;;4.90;;
22097;SDS011;11215;51.938;8.464;2023-03-01T05:34:40;8.30;;;5.17;;
22097;SDS011;11215;51.938;8.464;2023-03-01T05:37:07;8.57;;;5.67;;
22097;SDS011;11215;51.938;8.464;2023-03-01T05:39:33;6.93;;;5.03;;
22097;SDS011;11215;51.938;8.464;2023-03-01T05:42:00;8.17;;;5.63;;
22097;SDS011;11215;51.938;8.464;2023-03-01T05:44:26;6.90;;;5.20;;
22097;SDS011;11215;51.938;8.464;2023-03-01T05:46:53;7.97;;;5.50;;
22097;SDS011;11215;51.938;8.464;2023-03-01T05:49:19;9.03;;;5.57;;
22097;SDS011;11215;51.938;8.464;2023-03-01T05:51:49;6.70;;;4.63;;
22097;SDS011;11215;51.938;8.464;2023-03-01T05:54:16;8.27;;;4.70;;
22097;SDS011;11215;51.938;8.464;2023-03-01T05:56:41;7.70;;;4.63;;
22097;SDS011;11215;51.938;8.464;2023-03-01T05:59:08;7.40;;;4.93;;
22097;SDS011;11215;51.938;8.464;2023-03-01T06:01:34;6.93;;;4.73;;
22097;SDS011;11215;51.938;8.464;2023-03-01T06:04:01;10.03;;;5.20;;
22097;SDS011;11215;51.938;8.464;2023-03-01T06:06:27;7.40;;;4.87;;
22097;SDS011;11215;51.938;8.464;2023-03-01T06:08:53;6.60;;;4.57;;
22097;SDS011;11215;51.938;8.464;2023-03-01T06:11:19;8.87;;;5.33;;
22097;SDS011;11215;51.938;8.464;2023-03-01T06:13:46;5.83;;;4.57;;
22097;SDS011;11215;51.938;8.464;2023-03-01T06:16:12;10.67;;;5.43;;
22097;SDS011;11215;51.938;8.464;2023-03-01T06:18:38;6.90;;;4.80;;
22097;SDS011;11215;51.938;8.464;2023-03-01T06:21:04;6.27;;;4.77;;
22097;SDS011;11215;51.938;8.464;2023-03-01T06:23:31;9.13;;;5.53;;
22097;SDS011;11215;51.938;8.464;2023-03-01T06:25:57;9.07;;;5.47;;
22097;SDS011;11215;51.938;8.464;2023-03-01T06:28:33;9.00;;;5.30;;
22097;SDS011;11215;51.938;8.464;2023-03-01T06:31:00;10.60;;;5.63;;
22097;SDS011;11215;51.938;8.464;2023-03-01T06:33:28;8.60;;;5.57;;
22097;SDS011;11215;51.938;8.464;2023-03-01T06:39:18;8.83;;;5.23;;
22097;SDS011;11215;51.938;8.464;2023-03-01T06:41:44;12.17;;;5.60;;
22097;SDS011;11215;51.938;8.464;2023-03-01T06:44:10;7.10;;;5.03;;
22097;SDS011;11215;51.938;8.464;2023-03-01T06:46:36;9.77;;;5.43;;
22097;SDS011;11215;51.938;8.464;2023-03-01T06:49:02;7.73;;;5.40;;
22097;SDS011;11215;51.938;8.464;2023-03-01T06:51:32;7.73;;;5.37;;
22097;SDS011;11215;51.938;8.464;2023-03-01T06:53:58;9.77;;;6.47;;
22097;SDS011;11215;51.938;8.464;2023-03-01T06:56:23;8.00;;;5.90;;
22097;SDS011;11215;51.938;8.464;2023-03-01T06:58:49;9.67;;;6.00;;
22097;SDS011;11215;51.938;8.464;2023-03-01T07:01:15;7.97;;;5.30;;
22097;SDS011;11215;51.938;8.464;2023-03-01T07:03:40;9.27;;;5.73;;
22097;SDS011;11215;51.938;8.464;2023-03-01T07:06:09;8.10;;;5.27;;
22097;SDS011;11215;51.938;8.464;2023-03-01T07:08:35;8.33;;;5.10;;
22097;SDS011;11215;51.938;8.464;2023-03-01T07:11:00;8.63;;;5.73;;
22097;SDS011;11215;51.938;8.464;2023-03-01T07:13:28;7.20;;;5.07;;
22097;SDS011;11215;51.938;8.464;2023-03-01T07:15:54;7.50;;;4.97;;
22097;SDS011;11215;51.938;8.464;2023-03-01T07:18:19;8.63;;;4.87;;
22097;SDS011;11215;51.938;8.464;2023-03-01T07:20:45;8.23;;;5.50;;
22097;SDS011;11215;51.938;8.464;2023-03-01T07:23:10;7.03;;;4.93;;
22097;SDS011;11215;51.938;8.464;2023-03-01T07:25:36;8.93;;;5.20;;
22097;SDS011;11215;51.938;8.464;2023-03-01T07:28:02;8.27;;;5.63;;
22097;SDS011;11215;51.938;8.464;2023-03-01T07:30:27;8.43;;;5.57;;
22097;SDS011;11215;51.938;8.464;2023-03-01T07:32:56;11.33;;;6.20;;
22097;SDS011;11215;51.938;8.464;2023-03-01T07:35:23;7.30;;;5.60;;
22097;SDS011;11215;51.938;8.464;2023-03-01T07:37:51;8.93;;;6.00;;
22097;SDS011;11215;51.938;8.464;2023-03-01T07:40:17;8.57;;;5.70;;
22097;SDS011;11215;51.938;8.464;2023-03-01T07:42:43;9.73;;;6.23;;
22097;SDS011;11215;51.938;8.464;2023-03-01T07:45:09;11.70;;;6.30;;
22097;SDS011;11215;51.938;8.464;2023-03-01T07:47:35;10.30;;;6.57;;
22097;SDS011;11215;51.938;8.464;2023-03-01T07:50:01;9.97;;;6.60;;
22097;SDS011;11215;51.938;8.464;2023-03-01T07:55:59;9.50;;;6.50;;
22097;SDS011;11215;51.938;8.464;2023-03-01T08:02:24;10.37;;;6.07;;
22097;SDS011;11215;51.938;8.464;2023-03-01T08:04:50;10.17;;;6.43;;
22097;SDS011;11215;51.938;8.464;2023-03-01T08:07:15;10.07;;;7.17;;
22097;SDS011;11215;51.938;8.464;2023-03-01T08:09:41;11.30;;;6.90;;
22097;SDS011;11215;51.938;8.464;2023-03-01T08:12:07;13.23;;;7.37;;
22097;SDS011;11215;51.938;8.464;2023-03-01T08:14:32;13.37;;;7.73;;
22097;SDS011;11215;51.938;8.464;2023-03-01T08:16:58;9.50;;;6.83;;
22097;SDS011;11215;51.938;8.464;2023-03-01T08:19:24;10.93;;;7.17;;
22097;SDS011;11215;51.938;8.464;2023-03-01T08:21:49;11.37;;;7.10;;
22097;SDS011;11215;51.938;8.464;2023-03-01T08:24:15;10.97;;;7.57;;
22097;SDS011;11215;51.938;8.464;2023-03-01T08:26:41;12.43;;;7.67;;
22097;SDS011;11215;51.938;8.464;2023-03-01T08:29:06;10.67;;;7.67;;
22097;SDS011;11215;51.938;8.464;2023-03-01T08:31:34;12.20;;;7.80;;
22097;SDS011;11215;51.938;8.464;2023-03-01T08:34:08;12.70;;;8.10;;
22097;SDS011;11215;51.938;8.464;2023-03-01T08:36:37;12.33;;;8.23;;
22097;SDS011;11215;51.938;8.464;2023-03-01T08:39:05;10.80;;;7.10;;
22097;SDS011;11215;51.938;8.464;2023-03-01T08:41:31;11.17;;;7.73;;
22097;SDS011;11215;51.938;8.464;2023-03-01T08:43:57;12.73;;;8.33;;
22097;SDS011;11215;51.938;8.464;2023-03-01T08:46:26;11.83;;;7.27;;
22097;SDS011;11215;51.938;8.464;2023-03-01T08:48:57;10.70;;;6.90;;
22097;SDS011;11215;51.938;8.464;2023-03-01T08:51:23;10.50;;;7.13;;
22097;SDS011;11215;51.938;8.464;2023-03-01T08:53:49;12.30;;;7.33;;
22097;SDS011;11215;51.938;8.464;2023-03-01T08:56:15;11.50;;;7.87;;
22097;SDS011;11215;51.938;8.464;2023-03-01T08:58:43;10.47;;;7.73;;
22097;SDS011;11215;51.938;8.464;2023-03-01T09:01:11;11.20;;;7.60;;
22097;SDS011;11215;51.938;8.464;2023-03-01T09:03:38;9.37;;;7.80;;
22097;SDS011;11215;51.938;8.464;2023-03-01T09:06:05;13.27;;;7.03;;
22097;SDS011;11215;51.938;8.464;2023-03-01T09:08:34;9.40;;;6.43;;
22097;SDS011;11215;51.938;8.464;2023-03-01T09:11:04;9.20;;;6.17;;
22097;SDS011;11215;51.938;8.464;2023-03-01T09:13:31;9.63;;;6.20;;
22097;SDS011;11215;51.938;8.464;2023-03-01T09:15:57;10.37;;;5.93;;
22097;SDS011;11215;51.938;8.464;2023-03-01T09:18:24;9.63;;;6.37;;
22097;SDS011;11215;51.938;8.464;2023-03-01T09:20:49;13.60;;;7.37;;
22097;SDS011;11215;51.938;8.464;2023-03-01T09:23:15;11.43;;;6.57;;
22097;SDS011;11215;51.938;8.464;2023-03-01T09:25:41;9.83;;;6.53;;
22097;SDS011;11215;51.938;8.464;2023-03-01T09:28:06;10.70;;;6.67;;
22097;SDS011;11215;51.938;8.464;2023-03-01T09:30:32;11.73;;;7.37;;
22097;SDS011;11215;51.938;8.464;2023-03-01T09:32:57;9.87;;;6.73;;
22097;SDS011;11215;51.938;8.464;2023-03-01T09:35:23;13.23;;;7.27;;
22097;SDS011;11215;51.938;8.464;2023-03-01T09:37:49;10.73;;;6.47;;
22097;SDS011;11215;51.938;8.464;2023-03-01T09:40:21;10.10;;;6.40;;
22097;SDS011;11215;51.938;8.464;2023-03-01T09:42:52;9.43;;;6.30;;
22097;SDS011;11215;51.938;8.464;2023-03-01T09:45:38;9.00;;;6.07;;
22097;SDS011;11215;51.938;8.464;2023-03-01T09:48:13;8.30;;;5.97;;
22097;SDS011;11215;51.938;8.464;2023-03-01T09:50:43;11.67;;;6.77;;
22097;SDS011;11215;51.938;8.464;2023-03-01T09:53:15;9.87;;;6.77;;
22097;SDS011;11215;51.938;8.464;2023-03-01T10:01:16;9.20;;;6.20;;
22097;SDS011;11215;51.938;8.464;2023-03-01T10:04:12;7.57;;;5.80;;
22097;SDS011;11215;51.938;8.464;2023-03-01T10:06:38;8.90;;;5.93;;
22097;SDS011;11215;51.938;8.464;2023-03-01T10:09:12;8.90;;;5.27;;
22097;SDS011;11215;51.938;8.464;2023-03-01T10:11:48;7.87;;;5.60;;
22097;SDS011;11215;51.938;8.464;2023-03-01T10:20:19;7.47;;;5.87;;
22097;SDS011;11215;51.938;8.464;2023-03-01T10:22:47;7.67;;;5.60;;
22097;SDS011;11215;51.938;8.464;2023-03-01T10:31:01;8.03;;;5.93;;
22097;SDS011;11215;51.938;8.464;2023-03-01T10:33:29;7.27;;;5.47;;
22097;SDS011;11215;51.938;8.464;2023-03-01T10:35:57;9.87;;;7.23;;
22097;SDS011;11215;51.938;8.464;2023-03-01T10:38:23;8.20;;;6.10;;
22097;SDS011;11215;51.938;8.464;2023-03-01T10:40:56;9.20;;;6.27;;
22097;SDS011;11215;51.938;8.464;2023-03-01T10:43:40;9.97;;;7.00;;
22097;SDS011;11215;51.938;8.464;2023-03-01T10:46:23;8.77;;;6.67;;
22097;SDS011;11215;51.938;8.464;2023-03-01T10:49:12;10.17;;;6.57;;
22097;SDS011;11215;51.938;8.464;2023-03-01T10:51:44;8.90;;;6.13;;
22097;SDS011;11215;51.938;8.464;2023-03-01T10:54:19;9.70;;;6.70;;
22097;SDS011;11215;51.938;8.464;2023-03-01T10:56:56;8.30;;;6.27;;
22097;SDS011;11215;51.938;8.464;2023-03-01T10:59:28;10.53;;;6.87;;
22097;SDS011;11215;51.938;8.464;2023-03-01T11:04:27;9.87;;;6.77;;
22097;SDS011;11215;51.938;8.464;2023-03-01T11:06:59;10.17;;;6.80;;
22097;SDS011;11215;51.938;8.464;2023-03-01T11:09:26;9.53;;;6.17;;
22097;SDS011;11215;51.938;8.464;2023-03-01T11:12:02;8.40;;;6.70;;
22097;SDS011;11215;51.938;8.464;2023-03-01T11:14:33;9.33;;;6.23;;
22097;SDS011;11215;51.938;8.464;2023-03-01T11:17:11;7.80;;;5.67;;
22097;SDS011;11215;51.938;8.464;2023-03-01T11:19:41;7.73;;;5.23;;
22097;SDS011;11215;51.938;8.464;2023-03-01T11:22:14;7.97;;;5.70;;
22097;SDS011;11215;51.938;8.464;2023-03-01T11:24:49;8.07;;;5.30;;
22097;SDS011;11215;51.938;8.464;2023-03-01T11:30:03;7.37;;;4.80;;
22097;SDS011;11215;51.938;8.464;2023-03-01T11:32:42;9.40;;;5.80;;
22097;SDS011;11215;51.938;8.464;2023-03-01T11:35:17;7.27;;;5.30;;
22097;SDS011;11215;51.938;8.464;2023-03-01T11:40:40;8.20;;;5.30;;
22097;SDS011;11215;51.938;8.464;2023-03-01T11:49:49;7.30;;;5.30;;
22097;SDS011;11215;51.938;8.464;2023-03-01T12:02:49;6.33;;;4.17;;
22097;SDS011;11215;51.938;8.464;2023-03-01T12:08:38;9.43;;;4.97;;
22097;SDS011;11215;51.938;8.464;2023-03-01T12:22:44;5.97;;;4.37;;
22097;SDS011;11215;51.938;8.464;2023-03-01T12:45:30;6.43;;;4.20;;
22097;SDS011;11215;51.938;8.464;2023-03-01T12:52:09;6.37;;;4.40;;
22097;SDS011;11215;51.938;8.464;2023-03-01T13:11:50;8.53;;;4.30;;
22097;SDS011;11215;51.938;8.464;2023-03-01T13:17:40;5.13;;;3.60;;
22097;SDS011;11215;51.938;8.464;2023-03-01T13:23:36;5.70;;;4.10;;
22097;SDS011;11215;51.938;8.464;2023-03-01T13:29:26;6.13;;;4.23;;
22097;SDS011;11215;51.938;8.464;2023-03-01T13:53:47;7.47;;;4.77;;
22097;SDS011;11215;51.938;8.464;2023-03-01T13:59:34;7.00;;;3.73;;
22097;SDS011;11215;51.938;8.464;2023-03-01T14:06:22;4.83;;;3.50;;
22097;SDS011;11215;51.938;8.464;2023-03-01T14:15:33;4.50;;;3.40;;
22097;SDS011;11215;51.938;8.464;2023-03-01T14:34:53;4.80;;;3.30;;
22097;SDS011;11215;51.938;8.464;2023-03-01T14:37:34;4.90;;;3.13;;
22097;SDS011;11215;51.938;8.464;2023-03-01T14:40:00;6.60;;;3.60;;
22097;SDS011;11215;51.938;8.464;2023-03-01T14:52:01;4.90;;;3.57;;
22097;SDS011;11215;51.938;8.464;2023-03-01T14:57:23;6.50;;;3.73;;
22097;SDS011;11215;51.938;8.464;2023-03-01T15:00:00;4.37;;;3.30;;
22097;SDS011;11215;51.938;8.464;2023-03-01T15:05:52;8.30;;;3.70;;
22097;SDS011;11215;51.938;8.464;2023-03-01T15:11:46;8.47;;;4.40;;
22097;SDS011;11215;51.938;8.464;2023-03-01T15:17:35;8.40;;;4.83;;
22097;SDS011;11215;51.938;8.464;2023-03-01T15:59:37;4.67;;;3.30;;
22097;SDS011;11215;51.938;8.464;2023-03-01T16:02:11;4.83;;;3.60;;
22097;SDS011;11215;51.938;8.464;2023-03-01T16:04:38;5.97;;;3.70;;
22097;SDS011;11215;51.938;8.464;2023-03-01T16:09:56;5.43;;;4.10;;
22097;SDS011;11215;51.938;8.464;2023-03-01T16:12:22;5.67;;;3.70;;
22097;SDS011;11215;51.938;8.464;2023-03-01T16:14:49;5.43;;;3.47;;
22097;SDS011;11215;51.938;8.464;2023-03-01T16:17:15;5.37;;;3.97;;
22097;SDS011;11215;51.938;8.464;2023-03-01T16:19:41;6.53;;;4.37;;
22097;SDS011;11215;51.938;8.464;2023-03-01T16:22:07;5.67;;;4.40;;
22097;SDS011;11215;51.938;8.464;2023-03-01T16:24:35;6.37;;;3.80;;
22097;SDS011;11215;51.938;8.464;2023-03-01T16:27:01;5.63;;;3.67;;
22097;SDS011;11215;51.938;8.464;2023-03-01T16:29:27;5.70;;;3.70;;
22097;SDS011;11215;51.938;8.464;2023-03-01T16:31:54;5.27;;;3.50;;
22097;SDS011;11215;51.938;8.464;2023-03-01T16:34:19;4.93;;;3.40;;
22097;SDS011;11215;51.938;8.464;2023-03-01T16:36:46;8.00;;;4.00;;
22097;SDS011;11215;51.938;8.464;2023-03-01T16:39:12;5.97;;;3.87;;
22097;SDS011;11215;51.938;8.464;2023-03-01T16:41:38;5.17;;;3.50;;
22097;SDS011;11215;51.938;8.464;2023-03-01T16:44:03;7.80;;;4.37;;
22097;SDS011;11215;51.938;8.464;2023-03-01T16:46:29;8.20;;;4.93;;
22097;SDS011;11215;51.938;8.464;2023-03-01T16:48:55;7.83;;;4.23;;
22097;SDS011;11215;51.938;8.464;2023-03-01T16:51:22;5.80;;;4.20;;
22097;SDS011;11215;51.938;8.464;2023-03-01T16:53:48;5.93;;;4.13;;
22097;SDS011;11215;51.938;8.464;2023-03-01T16:56:15;6.63;;;4.70;;
22097;SDS011;11215;51.938;8.464;2023-03-01T16:58:42;5.63;;;4.47;;
22097;SDS011;11215;51.938;8.464;2023-03-01T17:01:10;9.00;;;5.47;;
22097;SDS011;11215;51.938;8.464;2023-03-01T17:03:41;8.67;;;5.33;;
22097;SDS011;11215;51.938;8.464;2023-03-01T17:06:08;9.23;;;5.63;;
22097;SDS011;11215;51.938;8.464;2023-03-01T17:08:36;9.83;;;5.97;;
22097;SDS011;11215;51.938;8.464;2023-03-01T17:11:04;7.63;;;4.97;;
22097;SDS011;11215;51.938;8.464;2023-03-01T17:13:38;9.20;;;5.50;;
22097;SDS011;11215;51.938;8.464;2023-03-01T17:16:05;8.10;;;5.13;;
22097;SDS011;11215;51.938;8.464;2023-03-01T17:18:32;10.57;;;5.30;;
22097;SDS011;11215;51.938;8.464;2023-03-01T17:20:58;8.30;;;4.93;;
22097;SDS011;11215;51.938;8.464;2023-03-01T17:23:25;6.80;;;4.57;;
22097;SDS011;11215;51.938;8.464;2023-03-01T17:25:51;9.13;;;5.00;;
22097;SDS011;11215;51.938;8.464;2023-03-01T17:28:18;7.00;;;4.70;;
22097;SDS011;11215;51.938;8.464;2023-03-01T17:30:44;6.37;;;4.27;;
22097;SDS011;11215;51.938;8.464;2023-03-01T17:33:12;7.23;;;4.87;;
22097;SDS011;11215;51.938;8.464;2023-03-01T17:35:38;8.17;;;4.60;;
22097;SDS011;11215;51.938;8.464;2023-03-01T17:38:04;9.13;;;6.43;;
22097;SDS011;11215;51.938;8.464;2023-03-01T17:40:31;13.23;;;9.80;;
22097;SDS011;11215;51.938;8.464;2023-03-01T17:42:57;10.30;;;7.37;;
22097;SDS011;11215;51.938;8.464;2023-03-01T17:45:24;10.83;;;8.60;;
22097;SDS011;11215;51.938;8.464;2023-03-01T17:47:49;11.93;;;8.60;;
22097;SDS011;11215;51.938;8.464;2023-03-01T17:50:15;12.13;;;8.33;;
22097;SDS011;11215;51.938;8.464;2023-03-01T17:52:41;14.67;;;9.30;;
22097;SDS011;11215;51.938;8.464;2023-03-01T17:55:07;8.57;;;7.03;;
22097;SDS011;11215;51.938;8.464;2023-03-01T17:57:34;9.97;;;7.30;;
22097;SDS011;11215;51.938;8.464;2023-03-01T18:00:03;12.50;;;8.20;;
22097;SDS011;11215;51.938;8.464;2023-03-01T18:02:30;12.90;;;7.80;;
22097;SDS011;11215;51.938;8.464;2023-03-01T18:04:56;9.27;;;5.93;;
22097;SDS011;11215;51.938;8.464;2023-03-01T18:07:24;10.13;;;7.07;;
22097;SDS011;11215;51.938;8.464;2023-03-01T18:09:51;11.57;;;7.13;;
22097;SDS011;11215;51.938;8.464;2023-03-01T18:12:17;10.30;;;6.93;;
22097;SDS011;11215;51.938;8.464;2023-03-01T18:14:42;22.47;;;14.37;;
22097;SDS011;11215;51.938;8.464;2023-03-01T18:17:08;13.70;;;9.97;;
22097;SDS011;11215;51.938;8.464;2023-03-01T18:19:36;8.23;;;6.43;;
22097;SDS011;11215;51.938;8.464;2023-03-01T18:22:05;8.57;;;6.70;;
22097;SDS011;11215;51.938;8.464;2023-03-01T18:24:32;8.20;;;6.43;;
22097;SDS011;11215;51.938;8.464;2023-03-01T18:26:58;11.10;;;6.57;;
22097;SDS011;11215;51.938;8.464;2023-03-01T18:29:24;8.30;;;6.03;;
22097;SDS011;11215;51.938;8.464;2023-03-01T18:31:49;7.53;;;5.80;;
22097;SDS011;11215;51.938;8.464;2023-03-01T18:34:15;7.43;;;5.03;;
22097;SDS011;11215;51.938;8.464;2023-03-01T18:36:41;7.70;;;5.23;;
22097;SDS011;11215;51.938;8.464;2023-03-01T18:39:07;7.87;;;5.10;;
22097;SDS011;11215;51.938;8.464;2023-03-01T18:41:33;7.60;;;5.50;;
22097;SDS011;11215;51.938;8.464;2023-03-01T18:43:59;8.23;;;5.83;;
22097;SDS011;11215;51.938;8.464;2023-03-01T18:46:26;8.60;;;5.37;;
22097;SDS011;11215;51.938;8.464;2023-03-01T18:48:52;9.73;;;5.40;;
22097;SDS011;11215;51.938;8.464;2023-03-01T18:51:19;8.60;;;6.33;;
22097;SDS011;11215;51.938;8.464;2023-03-01T18:53:47;7.20;;;5.77;;
22097;SDS011;11215;51.938;8.464;2023-03-01T18:56:13;7.83;;;5.80;;
22097;SDS011;11215;51.938;8.464;2023-03-01T18:58:39;7.77;;;5.40;;
22097;SDS011;11215;51.938;8.464;2023-03-01T19:01:11;9.47;;;5.77;;